sensor_id;sensor_type;location;lat;lon;timestamp;P1;durP1;ratioP1;P2;durP2;ratioP2
65393;SDS011;52002;49.760;6.512;2023-09-30T00:02:21;3.00;;;1.70;;
65393;SDS011;52002;49.760;6.512;2023-09-30T00:04:47;8.30;;;2.60;;
65393;SDS011;52002;49.760;6.512;2023-09-30T00:07:12;5.60;;;2.50;;
65393;SDS011;52002;49.760;6.512;2023-09-30T00:09:37;7.40;;;2.50;;
65393;SDS011;52002;49.760;6.512;2023-09-30T00:12:03;9.80;;;2.70;;
65393;SDS011;52002;49.760;6.512;2023-09-30T00:14:28;7.20;;;2.80;;
65393;SDS011;52002;49.760;6.512;2023-09-30T00:16:54;4.00;;;1.90;;
65393;SDS011;52002;49.760;6.512;2023-09-30T00:19:20;10.60;;;2.20;;
65393;SDS011;52002;49.760;6.512;2023-09-30T00:21:47;6.10;;;2.20;;
65393;SDS011;52002;49.760;6.512;2023-09-30T00:24:13;3.00;;;1.60;;
65393;SDS011;52002;49.760;6.512;2023-09-30T00:26:39;1.40;;;1.30;;
65393;SDS011;52002;49.760;6.512;2023-09-30T00:29:04;3.10;;;1.40;;
65393;SDS011;52002;49.760;6.512;2023-09-30T00:31:30;3.90;;;1.70;;
65393;SDS011;52002;49.760;6.512;2023-09-30T00:33:56;2.60;;;1.40;;
65393;SDS011;52002;49.760;6.512;2023-09-30T00:36:21;5.50;;;1.50;;
65393;SDS011;52002;49.760;6.512;2023-09-30T00:38:47;6.00;;;1.80;;
65393;SDS011;52002;49.760;6.512;2023-09-30T00:41:12;3.90;;;2.00;;
65393;SDS011;52002;49.760;6.512;2023-09-30T00:43:39;6.80;;;1.50;;
65393;SDS011;52002;49.760;6.512;2023-09-30T00:46:06;2.70;;;1.40;;
65393;SDS011;52002;49.760;6.512;2023-09-30T00:48:36;7.50;;;1.90;;
65393;SDS011;52002;49.760;6.512;2023-09-30T00:51:02;5.00;;;2.00;;
65393;SDS011;52002;49.760;6.512;2023-09-30T00:53:28;11.20;;;2.20;;
65393;SDS011;52002;49.760;6.512;2023-09-30T00:55:55;10.60;;;2.10;;
65393;SDS011;52002;49.760;6.512;2023-09-30T00:58:21;7.10;;;2.20;;
65393;SDS011;52002;49.760;6.512;2023-09-30T01:00:51;14.20;;;3.70;;
65393;SDS011;52002;49.760;6.512;2023-09-30T01:03:18;5.60;;;2.00;;
65393;SDS011;52002;49.760;6.512;2023-09-30T01:05:44;6.50;;;2.10;;
65393;SDS011;52002;49.760;6.512;2023-09-30T01:08:10;11.70;;;1.90;;
65393;SDS011;52002;49.760;6.512;2023-09-30T01:10:36;8.10;;;2.20;;
65393;SDS011;52002;49.760;6.512;2023-09-30T01:13:01;11.00;;;2.20;;
65393;SDS011;52002;49.760;6.512;2023-09-30T01:15:28;14.90;;;3.90;;
65393;SDS011;52002;49.760;6.512;2023-09-30T01:17:54;7.90;;;3.60;;
65393;SDS011;52002;49.760;6.512;2023-09-30T01:20:19;12.10;;;2.60;;
65393;SDS011;52002;49.760;6.512;2023-09-30T01:22:47;5.70;;;2.90;;
65393;SDS011;52002;49.760;6.512;2023-09-30T01:25:12;5.50;;;2.60;;
65393;SDS011;52002;49.760;6.512;2023-09-30T01:27:38;9.50;;;2.40;;
65393;SDS011;52002;49.760;6.512;2023-09-30T01:30:03;6.10;;;2.10;;
65393;SDS011;52002;49.760;6.512;2023-09-30T01:32:29;4.70;;;2.10;;
65393;SDS011;52002;49.760;6.512;2023-09-30T01:34:54;3.00;;;1.80;;
65393;SDS011;52002;49.760;6.512;2023-09-30T01:37:20;5.40;;;1.90;;
65393;SDS011;52002;49.760;6.512;2023-09-30T01:39:46;6.60;;;2.10;;
65393;SDS011;52002;49.760;6.512;2023-09-30T01:42:11;3.40;;;2.10;;
65393;SDS011;52002;49.760;6.512;2023-09-30T01:44:37;9.20;;;2.60;;
65393;SDS011;52002;49.760;6.512;2023-09-30T01:47:02;4.10;;;1.90;;
65393;SDS011;52002;49.760;6.512;2023-09-30T01:49:27;7.70;;;2.30;;
65393;SDS011;52002;49.760;6.512;2023-09-30T01:51:53;6.20;;;2.30;;
65393;SDS011;52002;49.760;6.512;2023-09-30T01:54:18;3.50;;;2.30;;
65393;SDS011;52002;49.760;6.512;2023-09-30T01:56:43;5.70;;;2.30;;
65393;SDS011;52002;49.760;6.512;2023-09-30T01:59:09;4.20;;;2.00;;
65393;SDS011;52002;49.760;6.512;2023-09-30T02:01:34;5.90;;;2.20;;
65393;SDS011;52002;49.760;6.512;2023-09-30T02:03:59;4.00;;;2.10;;
65393;SDS011;52002;49.760;6.512;2023-09-30T02:06:25;3.40;;;2.10;;
65393;SDS011;52002;49.760;6.512;2023-09-30T02:08:50;2.10;;;1.80;;
65393;SDS011;52002;49.760;6.512;2023-09-30T02:11:16;6.90;;;2.30;;
65393;SDS011;52002;49.760;6.512;2023-09-30T02:13:41;4.50;;;2.40;;
65393;SDS011;52002;49.760;6.512;2023-09-30T02:16:14;3.00;;;1.90;;
65393;SDS011;52002;49.760;6.512;2023-09-30T02:18:41;4.50;;;1.90;;
65393;SDS011;52002;49.760;6.512;2023-09-30T02:21:09;2.40;;;1.90;;
65393;SDS011;52002;49.760;6.512;2023-09-30T02:23:35;3.80;;;2.00;;
65393;SDS011;52002;49.760;6.512;2023-09-30T02:26:01;3.60;;;1.70;;
65393;SDS011;52002;49.760;6.512;2023-09-30T02:28:28;1.90;;;1.60;;
65393;SDS011;52002;49.760;6.512;2023-09-30T02:30:54;2.70;;;1.80;;
65393;SDS011;52002;49.760;6.512;2023-09-30T02:33:19;7.60;;;1.80;;
65393;SDS011;52002;49.760;6.512;2023-09-30T02:35:45;1.90;;;1.60;;
65393;SDS011;52002;49.760;6.512;2023-09-30T02:38:11;2.00;;;1.70;;
65393;SDS011;52002;49.760;6.512;2023-09-30T02:40:37;1.90;;;1.50;;
65393;SDS011;52002;49.760;6.512;2023-09-30T02:43:03;2.00;;;1.70;;
65393;SDS011;52002;49.760;6.512;2023-09-30T02:45:29;2.30;;;1.70;;
65393;SDS011;52002;49.760;6.512;2023-09-30T02:47:54;2.30;;;1.80;;
65393;SDS011;52002;49.760;6.512;2023-09-30T02:50:20;5.20;;;2.10;;
65393;SDS011;52002;49.760;6.512;2023-09-30T02:52:46;2.10;;;1.50;;
65393;SDS011;52002;49.760;6.512;2023-09-30T02:55:12;2.70;;;1.40;;
65393;SDS011;52002;49.760;6.512;2023-09-30T02:57:38;2.00;;;1.80;;
65393;SDS011;52002;49.760;6.512;2023-09-30T03:00:04;2.10;;;1.70;;
65393;SDS011;52002;49.760;6.512;2023-09-30T03:02:51;2.80;;;1.70;;
65393;SDS011;52002;49.760;6.512;2023-09-30T03:05:18;2.90;;;1.60;;
65393;SDS011;52002;49.760;6.512;2023-09-30T03:07:44;4.40;;;1.80;;
65393;SDS011;52002;49.760;6.512;2023-09-30T03:10:10;1.90;;;1.70;;
65393;SDS011;52002;49.760;6.512;2023-09-30T03:12:37;1.70;;;1.40;;
65393;SDS011;52002;49.760;6.512;2023-09-30T03:15:03;2.10;;;1.80;;
65393;SDS011;52002;49.760;6.512;2023-09-30T03:17:30;2.30;;;1.70;;
65393;SDS011;52002;49.760;6.512;2023-09-30T03:19:57;2.20;;;2.00;;
65393;SDS011;52002;49.760;6.512;2023-09-30T03:22:24;2.10;;;1.60;;
65393;SDS011;52002;49.760;6.512;2023-09-30T03:24:52;1.80;;;1.70;;
65393;SDS011;52002;49.760;6.512;2023-09-30T03:27:19;2.90;;;1.80;;
65393;SDS011;52002;49.760;6.512;2023-09-30T03:29:45;2.50;;;2.00;;
65393;SDS011;52002;49.760;6.512;2023-09-30T03:32:11;2.60;;;1.90;;
65393;SDS011;52002;49.760;6.512;2023-09-30T03:34:36;4.50;;;2.00;;
65393;SDS011;52002;49.760;6.512;2023-09-30T03:37:01;2.50;;;2.10;;
65393;SDS011;52002;49.760;6.512;2023-09-30T03:39:27;4.60;;;1.80;;
65393;SDS011;52002;49.760;6.512;2023-09-30T03:41:55;4.40;;;3.00;;
65393;SDS011;52002;49.760;6.512;2023-09-30T03:44:23;2.30;;;2.10;;
65393;SDS011;52002;49.760;6.512;2023-09-30T03:46:48;2.50;;;2.00;;
65393;SDS011;52002;49.760;6.512;2023-09-30T03:49:15;4.60;;;2.00;;
65393;SDS011;52002;49.760;6.512;2023-09-30T03:51:42;2.50;;;1.70;;
65393;SDS011;52002;49.760;6.512;2023-09-30T03:54:07;1.90;;;1.70;;
65393;SDS011;52002;49.760;6.512;2023-09-30T03:56:34;2.70;;;1.90;;
65393;SDS011;52002;49.760;6.512;2023-09-30T03:58:59;3.30;;;1.90;;
65393;SDS011;52002;49.760;6.512;2023-09-30T04:01:25;2.40;;;1.70;;
65393;SDS011;52002;49.760;6.512;2023-09-30T04:03:51;1.60;;;1.50;;
65393;SDS011;52002;49.760;6.512;2023-09-30T04:06:20;1.50;;;1.40;;
65393;SDS011;52002;49.760;6.512;2023-09-30T04:08:45;2.80;;;1.30;;
65393;SDS011;52002;49.760;6.512;2023-09-30T04:11:10;2.70;;;1.40;;
65393;SDS011;52002;49.760;6.512;2023-09-30T04:13:42;2.90;;;1.50;;
65393;SDS011;52002;49.760;6.512;2023-09-30T04:16:07;1.50;;;1.30;;
65393;SDS011;52002;49.760;6.512;2023-09-30T04:18:33;1.50;;;1.40;;
65393;SDS011;52002;49.760;6.512;2023-09-30T04:20:58;2.60;;;1.70;;
65393;SDS011;52002;49.760;6.512;2023-09-30T04:23:23;2.60;;;1.60;;
65393;SDS011;52002;49.760;6.512;2023-09-30T04:25:50;1.80;;;1.70;;
65393;SDS011;52002;49.760;6.512;2023-09-30T04:28:15;2.00;;;1.40;;
65393;SDS011;52002;49.760;6.512;2023-09-30T04:30:45;1.80;;;1.50;;
65393;SDS011;52002;49.760;6.512;2023-09-30T04:33:12;1.90;;;1.60;;
65393;SDS011;52002;49.760;6.512;2023-09-30T04:35:38;2.00;;;1.60;;
65393;SDS011;52002;49.760;6.512;2023-09-30T04:38:03;2.20;;;1.60;;
65393;SDS011;52002;49.760;6.512;2023-09-30T04:40:30;1.50;;;1.40;;
65393;SDS011;52002;49.760;6.512;2023-09-30T04:42:55;6.10;;;1.50;;
65393;SDS011;52002;49.760;6.512;2023-09-30T04:45:26;2.60;;;1.50;;
65393;SDS011;52002;49.760;6.512;2023-09-30T04:47:53;1.40;;;1.20;;
65393;SDS011;52002;49.760;6.512;2023-09-30T04:50:19;1.20;;;1.20;;
65393;SDS011;52002;49.760;6.512;2023-09-30T04:52:47;1.40;;;1.30;;
65393;SDS011;52002;49.760;6.512;2023-09-30T04:55:13;1.10;;;1.00;;
65393;SDS011;52002;49.760;6.512;2023-09-30T04:57:41;1.60;;;1.10;;
65393;SDS011;52002;49.760;6.512;2023-09-30T05:00:09;1.20;;;1.10;;
65393;SDS011;52002;49.760;6.512;2023-09-30T05:02:37;1.30;;;1.20;;
65393;SDS011;52002;49.760;6.512;2023-09-30T05:05:02;1.50;;;1.40;;
65393;SDS011;52002;49.760;6.512;2023-09-30T05:07:31;1.40;;;1.30;;
65393;SDS011;52002;49.760;6.512;2023-09-30T05:09:59;1.20;;;1.10;;
65393;SDS011;52002;49.760;6.512;2023-09-30T05:12:24;1.90;;;1.20;;
65393;SDS011;52002;49.760;6.512;2023-09-30T05:14:50;1.50;;;1.40;;
65393;SDS011;52002;49.760;6.512;2023-09-30T05:17:16;1.60;;;1.50;;
65393;SDS011;52002;49.760;6.512;2023-09-30T05:19:41;1.90;;;1.60;;
65393;SDS011;52002;49.760;6.512;2023-09-30T05:22:07;1.90;;;1.30;;
65393;SDS011;52002;49.760;6.512;2023-09-30T05:24:32;2.00;;;1.70;;
65393;SDS011;52002;49.760;6.512;2023-09-30T05:26:57;2.60;;;1.70;;
65393;SDS011;52002;49.760;6.512;2023-09-30T05:29:23;6.20;;;1.70;;
65393;SDS011;52002;49.760;6.512;2023-09-30T05:31:48;1.80;;;1.50;;
65393;SDS011;52002;49.760;6.512;2023-09-30T05:34:14;1.80;;;1.60;;
65393;SDS011;52002;49.760;6.512;2023-09-30T05:36:39;1.80;;;1.50;;
65393;SDS011;52002;49.760;6.512;2023-09-30T05:39:05;2.00;;;1.60;;
65393;SDS011;52002;49.760;6.512;2023-09-30T05:41:31;2.00;;;1.70;;
65393;SDS011;52002;49.760;6.512;2023-09-30T05:43:56;1.80;;;1.70;;
65393;SDS011;52002;49.760;6.512;2023-09-30T05:46:23;6.30;;;1.90;;
65393;SDS011;52002;49.760;6.512;2023-09-30T05:48:49;1.90;;;1.70;;
65393;SDS011;52002;49.760;6.512;2023-09-30T05:51:15;2.00;;;1.50;;
65393;SDS011;52002;49.760;6.512;2023-09-30T05:53:40;3.90;;;1.50;;
65393;SDS011;52002;49.760;6.512;2023-09-30T05:56:07;1.80;;;1.50;;
65393;SDS011;52002;49.760;6.512;2023-09-30T05:58:33;1.70;;;1.60;;
65393;SDS011;52002;49.760;6.512;2023-09-30T06:00:58;2.60;;;2.10;;
65393;SDS011;52002;49.760;6.512;2023-09-30T06:03:25;2.10;;;1.90;;
65393;SDS011;52002;49.760;6.512;2023-09-30T06:05:50;2.80;;;1.70;;
65393;SDS011;52002;49.760;6.512;2023-09-30T06:08:16;2.00;;;1.80;;
65393;SDS011;52002;49.760;6.512;2023-09-30T06:10:41;5.20;;;1.70;;
65393;SDS011;52002;49.760;6.512;2023-09-30T06:13:08;2.40;;;2.00;;
65393;SDS011;52002;49.760;6.512;2023-09-30T06:15:43;2.40;;;1.90;;
65393;SDS011;52002;49.760;6.512;2023-09-30T06:18:09;2.20;;;1.70;;
65393;SDS011;52002;49.760;6.512;2023-09-30T06:20:37;2.70;;;1.90;;
65393;SDS011;52002;49.760;6.512;2023-09-30T06:23:03;3.10;;;2.00;;
65393;SDS011;52002;49.760;6.512;2023-09-30T06:25:28;2.70;;;2.00;;
65393;SDS011;52002;49.760;6.512;2023-09-30T06:27:55;2.00;;;1.80;;
65393;SDS011;52002;49.760;6.512;2023-09-30T06:30:21;2.10;;;1.90;;
65393;SDS011;52002;49.760;6.512;2023-09-30T06:32:47;2.30;;;2.00;;
65393;SDS011;52002;49.760;6.512;2023-09-30T06:35:13;1.80;;;1.70;;
65393;SDS011;52002;49.760;6.512;2023-09-30T06:37:39;2.40;;;1.90;;
65393;SDS011;52002;49.760;6.512;2023-09-30T06:40:09;2.40;;;1.60;;
65393;SDS011;52002;49.760;6.512;2023-09-30T06:42:36;2.90;;;2.10;;
65393;SDS011;52002;49.760;6.512;2023-09-30T06:45:02;2.90;;;1.90;;
65393;SDS011;52002;49.760;6.512;2023-09-30T06:47:34;4.30;;;2.10;;
65393;SDS011;52002;49.760;6.512;2023-09-30T06:50:03;3.40;;;2.90;;
65393;SDS011;52002;49.760;6.512;2023-09-30T06:52:33;2.30;;;2.10;;
65393;SDS011;52002;49.760;6.512;2023-09-30T06:55:00;2.30;;;2.10;;
65393;SDS011;52002;49.760;6.512;2023-09-30T06:57:27;3.00;;;2.30;;
65393;SDS011;52002;49.760;6.512;2023-09-30T06:59:52;3.20;;;2.30;;
65393;SDS011;52002;49.760;6.512;2023-09-30T07:02:17;2.40;;;2.20;;
65393;SDS011;52002;49.760;6.512;2023-09-30T07:04:42;6.40;;;2.30;;
65393;SDS011;52002;49.760;6.512;2023-09-30T07:07:08;2.30;;;2.10;;
65393;SDS011;52002;49.760;6.512;2023-09-30T07:09:33;5.60;;;2.30;;
65393;SDS011;52002;49.760;6.512;2023-09-30T07:11:59;3.70;;;2.30;;
65393;SDS011;52002;49.760;6.512;2023-09-30T07:14:24;2.30;;;2.00;;
65393;SDS011;52002;49.760;6.512;2023-09-30T07:16:50;2.40;;;2.10;;
65393;SDS011;52002;49.760;6.512;2023-09-30T07:19:15;5.50;;;2.30;;
65393;SDS011;52002;49.760;6.512;2023-09-30T07:21:40;4.30;;;2.80;;
65393;SDS011;52002;49.760;6.512;2023-09-30T07:24:06;2.80;;;2.30;;
65393;SDS011;52002;49.760;6.512;2023-09-30T07:26:31;2.60;;;2.30;;
65393;SDS011;52002;49.760;6.512;2023-09-30T07:28:57;4.50;;;2.20;;
65393;SDS011;52002;49.760;6.512;2023-09-30T07:31:23;2.30;;;1.80;;
65393;SDS011;52002;49.760;6.512;2023-09-30T07:33:48;2.90;;;2.20;;
65393;SDS011;52002;49.760;6.512;2023-09-30T07:36:14;1.70;;;1.60;;
65393;SDS011;52002;49.760;6.512;2023-09-30T07:38:39;3.80;;;1.70;;
65393;SDS011;52002;49.760;6.512;2023-09-30T07:41:05;3.20;;;2.10;;
65393;SDS011;52002;49.760;6.512;2023-09-30T07:43:31;4.10;;;1.80;;
65393;SDS011;52002;49.760;6.512;2023-09-30T07:45:56;2.20;;;2.00;;
65393;SDS011;52002;49.760;6.512;2023-09-30T07:48:21;1.80;;;1.70;;
65393;SDS011;52002;49.760;6.512;2023-09-30T07:50:47;5.00;;;1.90;;
65393;SDS011;52002;49.760;6.512;2023-09-30T07:53:12;2.90;;;2.10;;
65393;SDS011;52002;49.760;6.512;2023-09-30T07:55:38;3.80;;;2.10;;
65393;SDS011;52002;49.760;6.512;2023-09-30T07:58:04;3.80;;;2.10;;
65393;SDS011;52002;49.760;6.512;2023-09-30T08:00:30;3.70;;;2.10;;
65393;SDS011;52002;49.760;6.512;2023-09-30T08:02:55;2.90;;;2.10;;
65393;SDS011;52002;49.760;6.512;2023-09-30T08:05:20;3.60;;;2.40;;
65393;SDS011;52002;49.760;6.512;2023-09-30T08:07:46;2.30;;;2.10;;
65393;SDS011;52002;49.760;6.512;2023-09-30T08:10:11;3.70;;;2.30;;
65393;SDS011;52002;49.760;6.512;2023-09-30T08:12:38;2.40;;;2.20;;
65393;SDS011;52002;49.760;6.512;2023-09-30T08:15:05;4.10;;;2.70;;
65393;SDS011;52002;49.760;6.512;2023-09-30T08:17:31;3.00;;;2.40;;
65393;SDS011;52002;49.760;6.512;2023-09-30T08:19:57;3.80;;;2.40;;
65393;SDS011;52002;49.760;6.512;2023-09-30T08:22:22;5.10;;;2.60;;
65393;SDS011;52002;49.760;6.512;2023-09-30T08:24:52;4.70;;;2.30;;
65393;SDS011;52002;49.760;6.512;2023-09-30T08:27:18;2.80;;;2.10;;
65393;SDS011;52002;49.760;6.512;2023-09-30T08:29:43;4.20;;;2.20;;
65393;SDS011;52002;49.760;6.512;2023-09-30T08:32:09;3.20;;;2.60;;
65393;SDS011;52002;49.760;6.512;2023-09-30T08:34:35;3.60;;;2.60;;
65393;SDS011;52002;49.760;6.512;2023-09-30T08:37:00;4.00;;;2.40;;
65393;SDS011;52002;49.760;6.512;2023-09-30T08:39:27;6.30;;;2.60;;
65393;SDS011;52002;49.760;6.512;2023-09-30T08:41:53;3.20;;;1.80;;
65393;SDS011;52002;49.760;6.512;2023-09-30T08:44:21;2.90;;;2.40;;
65393;SDS011;52002;49.760;6.512;2023-09-30T08:46:47;2.80;;;2.30;;
65393;SDS011;52002;49.760;6.512;2023-09-30T08:49:14;3.60;;;2.50;;
65393;SDS011;52002;49.760;6.512;2023-09-30T08:51:40;3.80;;;2.20;;
65393;SDS011;52002;49.760;6.512;2023-09-30T08:54:06;3.70;;;2.60;;
65393;SDS011;52002;49.760;6.512;2023-09-30T08:56:32;3.90;;;2.10;;
65393;SDS011;52002;49.760;6.512;2023-09-30T08:59:01;3.20;;;2.50;;
65393;SDS011;52002;49.760;6.512;2023-09-30T09:01:28;3.90;;;2.70;;
65393;SDS011;52002;49.760;6.512;2023-09-30T09:03:54;3.50;;;2.30;;
65393;SDS011;52002;49.760;6.512;2023-09-30T09:06:21;2.90;;;2.30;;
65393;SDS011;52002;49.760;6.512;2023-09-30T09:08:47;6.00;;;2.40;;
65393;SDS011;52002;49.760;6.512;2023-09-30T09:11:13;2.70;;;2.40;;
65393;SDS011;52002;49.760;6.512;2023-09-30T09:13:49;3.80;;;3.00;;
65393;SDS011;52002;49.760;6.512;2023-09-30T09:16:18;3.10;;;2.50;;
65393;SDS011;52002;49.760;6.512;2023-09-30T09:18:44;4.00;;;2.50;;
65393;SDS011;52002;49.760;6.512;2023-09-30T09:21:12;2.90;;;2.50;;
65393;SDS011;52002;49.760;6.512;2023-09-30T09:23:43;4.70;;;2.40;;
65393;SDS011;52002;49.760;6.512;2023-09-30T09:26:10;2.90;;;2.40;;
65393;SDS011;52002;49.760;6.512;2023-09-30T09:28:37;4.20;;;2.60;;
65393;SDS011;52002;49.760;6.512;2023-09-30T09:31:23;6.30;;;2.60;;
65393;SDS011;52002;49.760;6.512;2023-09-30T09:33:51;4.30;;;2.70;;
65393;SDS011;52002;49.760;6.512;2023-09-30T09:36:17;3.70;;;2.80;;
65393;SDS011;52002;49.760;6.512;2023-09-30T09:38:45;3.20;;;2.70;;
65393;SDS011;52002;49.760;6.512;2023-09-30T09:41:12;4.60;;;3.10;;
65393;SDS011;52002;49.760;6.512;2023-09-30T09:43:38;5.00;;;3.30;;
65393;SDS011;52002;49.760;6.512;2023-09-30T09:46:09;3.20;;;2.90;;
65393;SDS011;52002;49.760;6.512;2023-09-30T09:48:37;5.60;;;3.10;;
65393;SDS011;52002;49.760;6.512;2023-09-30T09:51:03;5.60;;;3.70;;
65393;SDS011;52002;49.760;6.512;2023-09-30T09:53:35;6.80;;;3.50;;
65393;SDS011;52002;49.760;6.512;2023-09-30T09:56:03;4.90;;;3.30;;
65393;SDS011;52002;49.760;6.512;2023-09-30T09:58:33;7.30;;;3.90;;
65393;SDS011;52002;49.760;6.512;2023-09-30T10:01:03;3.80;;;3.10;;
65393;SDS011;52002;49.760;6.512;2023-09-30T10:03:30;5.00;;;2.80;;
65393;SDS011;52002;49.760;6.512;2023-09-30T10:05:56;7.60;;;3.60;;
65393;SDS011;52002;49.760;6.512;2023-09-30T10:08:27;3.90;;;3.40;;
65393;SDS011;52002;49.760;6.512;2023-09-30T10:10:57;4.40;;;3.30;;
65393;SDS011;52002;49.760;6.512;2023-09-30T10:19:14;3.50;;;2.80;;
65393;SDS011;52002;49.760;6.512;2023-09-30T10:24:43;7.80;;;3.30;;
65393;SDS011;52002;49.760;6.512;2023-09-30T10:29:46;3.90;;;2.70;;
65393;SDS011;52002;49.760;6.512;2023-09-30T10:32:12;4.80;;;2.90;;
65393;SDS011;52002;49.760;6.512;2023-09-30T10:34:39;4.50;;;2.70;;
65393;SDS011;52002;49.760;6.512;2023-09-30T10:37:24;4.40;;;2.70;;
65393;SDS011;52002;49.760;6.512;2023-09-30T10:39:54;5.00;;;2.90;;
65393;SDS011;52002;49.760;6.512;2023-09-30T10:42:43;9.40;;;3.40;;
65393;SDS011;52002;49.760;6.512;2023-09-30T10:50:53;6.40;;;2.90;;
65393;SDS011;52002;49.760;6.512;2023-09-30T10:53:21;7.30;;;2.90;;
65393;SDS011;52002;49.760;6.512;2023-09-30T10:55:50;6.60;;;2.70;;
65393;SDS011;52002;49.760;6.512;2023-09-30T10:58:21;6.00;;;2.90;;
65393;SDS011;52002;49.760;6.512;2023-09-30T11:00:53;4.10;;;2.30;;
65393;SDS011;52002;49.760;6.512;2023-09-30T11:03:19;8.50;;;3.30;;
65393;SDS011;52002;49.760;6.512;2023-09-30T11:05:49;9.80;;;4.70;;
65393;SDS011;52002;49.760;6.512;2023-09-30T11:08:16;4.50;;;2.80;;
65393;SDS011;52002;49.760;6.512;2023-09-30T11:10:50;6.30;;;3.10;;
65393;SDS011;52002;49.760;6.512;2023-09-30T11:13:19;5.10;;;2.80;;
65393;SDS011;52002;49.760;6.512;2023-09-30T11:15:45;11.90;;;4.70;;
65393;SDS011;52002;49.760;6.512;2023-09-30T11:18:15;11.00;;;4.60;;
65393;SDS011;52002;49.760;6.512;2023-09-30T11:20:42;6.50;;;3.50;;
65393;SDS011;52002;49.760;6.512;2023-09-30T11:23:09;5.60;;;3.00;;
65393;SDS011;52002;49.760;6.512;2023-09-30T11:25:36;4.10;;;2.50;;
65393;SDS011;52002;49.760;6.512;2023-09-30T11:28:16;7.40;;;2.50;;
65393;SDS011;52002;49.760;6.512;2023-09-30T11:30:58;7.60;;;2.80;;
65393;SDS011;52002;49.760;6.512;2023-09-30T11:33:25;6.70;;;2.60;;
65393;SDS011;52002;49.760;6.512;2023-09-30T11:36:01;4.70;;;2.80;;
65393;SDS011;52002;49.760;6.512;2023-09-30T11:38:28;5.80;;;2.50;;
65393;SDS011;52002;49.760;6.512;2023-09-30T11:41:01;4.20;;;2.40;;
65393;SDS011;52002;49.760;6.512;2023-09-30T11:43:29;6.60;;;3.00;;
65393;SDS011;52002;49.760;6.512;2023-09-30T11:46:08;6.30;;;2.60;;
65393;SDS011;52002;49.760;6.512;2023-09-30T11:48:38;8.60;;;3.20;;
65393;SDS011;52002;49.760;6.512;2023-09-30T11:51:04;10.60;;;3.20;;
65393;SDS011;52002;49.760;6.512;2023-09-30T11:53:30;10.80;;;4.60;;
65393;SDS011;52002;49.760;6.512;2023-09-30T11:55:59;7.50;;;3.20;;
65393;SDS011;52002;49.760;6.512;2023-09-30T11:58:27;8.70;;;3.70;;
65393;SDS011;52002;49.760;6.512;2023-09-30T12:01:00;6.30;;;3.30;;
65393;SDS011;52002;49.760;6.512;2023-09-30T12:03:26;6.90;;;3.40;;
65393;SDS011;52002;49.760;6.512;2023-09-30T12:05:54;7.20;;;3.30;;
65393;SDS011;52002;49.760;6.512;2023-09-30T12:08:22;7.40;;;3.30;;
65393;SDS011;52002;49.760;6.512;2023-09-30T12:10:48;8.80;;;3.80;;
65393;SDS011;52002;49.760;6.512;2023-09-30T12:13:14;10.30;;;3.30;;
65393;SDS011;52002;49.760;6.512;2023-09-30T12:15:40;5.20;;;3.10;;
65393;SDS011;52002;49.760;6.512;2023-09-30T12:18:06;7.90;;;3.00;;
65393;SDS011;52002;49.760;6.512;2023-09-30T12:20:32;6.30;;;2.70;;
65393;SDS011;52002;49.760;6.512;2023-09-30T12:22:58;6.10;;;2.90;;
65393;SDS011;52002;49.760;6.512;2023-09-30T12:25:24;6.30;;;3.30;;
65393;SDS011;52002;49.760;6.512;2023-09-30T12:27:50;6.30;;;3.30;;
65393;SDS011;52002;49.760;6.512;2023-09-30T12:30:16;9.60;;;3.10;;
65393;SDS011;52002;49.760;6.512;2023-09-30T12:32:42;7.50;;;4.20;;
65393;SDS011;52002;49.760;6.512;2023-09-30T12:35:07;8.90;;;4.60;;
65393;SDS011;52002;49.760;6.512;2023-09-30T12:37:33;9.10;;;4.50;;
65393;SDS011;52002;49.760;6.512;2023-09-30T12:39:58;7.70;;;3.80;;
65393;SDS011;52002;49.760;6.512;2023-09-30T12:42:24;7.90;;;3.60;;
65393;SDS011;52002;49.760;6.512;2023-09-30T12:44:49;7.10;;;3.00;;
65393;SDS011;52002;49.760;6.512;2023-09-30T12:47:15;6.80;;;3.50;;
65393;SDS011;52002;49.760;6.512;2023-09-30T12:49:40;7.50;;;3.60;;
65393;SDS011;52002;49.760;6.512;2023-09-30T12:52:06;7.70;;;3.40;;
65393;SDS011;52002;49.760;6.512;2023-09-30T12:54:32;6.00;;;3.10;;
65393;SDS011;52002;49.760;6.512;2023-09-30T12:56:57;8.20;;;3.40;;
65393;SDS011;52002;49.760;6.512;2023-09-30T12:59:23;6.60;;;3.30;;
65393;SDS011;52002;49.760;6.512;2023-09-30T13:01:50;8.30;;;4.40;;
65393;SDS011;52002;49.760;6.512;2023-09-30T13:04:16;8.80;;;3.70;;
65393;SDS011;52002;49.760;6.512;2023-09-30T13:06:42;6.00;;;3.70;;
65393;SDS011;52002;49.760;6.512;2023-09-30T13:09:08;7.90;;;3.70;;
65393;SDS011;52002;49.760;6.512;2023-09-30T13:11:37;6.40;;;3.10;;
65393;SDS011;52002;49.760;6.512;2023-09-30T13:14:02;6.50;;;3.20;;
65393;SDS011;52002;49.760;6.512;2023-09-30T13:16:28;9.90;;;3.30;;
65393;SDS011;52002;49.760;6.512;2023-09-30T13:18:53;11.30;;;4.50;;
65393;SDS011;52002;49.760;6.512;2023-09-30T13:21:18;8.10;;;3.30;;
65393;SDS011;52002;49.760;6.512;2023-09-30T13:23:44;8.60;;;3.00;;
65393;SDS011;52002;49.760;6.512;2023-09-30T13:26:10;6.70;;;3.20;;
65393;SDS011;52002;49.760;6.512;2023-09-30T13:28:35;5.60;;;2.80;;
65393;SDS011;52002;49.760;6.512;2023-09-30T13:31:01;8.30;;;3.30;;
65393;SDS011;52002;49.760;6.512;2023-09-30T13:33:26;6.80;;;2.70;;
65393;SDS011;52002;49.760;6.512;2023-09-30T13:35:52;6.40;;;2.80;;
65393;SDS011;52002;49.760;6.512;2023-09-30T13:38:17;9.00;;;2.60;;
65393;SDS011;52002;49.760;6.512;2023-09-30T13:40:43;4.50;;;2.80;;
65393;SDS011;52002;49.760;6.512;2023-09-30T13:43:09;7.80;;;2.80;;
65393;SDS011;52002;49.760;6.512;2023-09-30T13:45:34;4.70;;;2.50;;
65393;SDS011;52002;49.760;6.512;2023-09-30T13:47:59;6.50;;;2.60;;
65393;SDS011;52002;49.760;6.512;2023-09-30T13:50:25;7.40;;;3.20;;
65393;SDS011;52002;49.760;6.512;2023-09-30T13:52:50;7.50;;;2.90;;
65393;SDS011;52002;49.760;6.512;2023-09-30T13:55:15;5.00;;;2.60;;
65393;SDS011;52002;49.760;6.512;2023-09-30T13:57:47;6.30;;;3.00;;
65393;SDS011;52002;49.760;6.512;2023-09-30T14:00:13;5.40;;;2.60;;
65393;SDS011;52002;49.760;6.512;2023-09-30T14:02:41;7.20;;;3.20;;
65393;SDS011;52002;49.760;6.512;2023-09-30T14:05:07;6.70;;;2.80;;
65393;SDS011;52002;49.760;6.512;2023-09-30T14:07:33;5.20;;;2.30;;
65393;SDS011;52002;49.760;6.512;2023-09-30T14:09:59;6.30;;;2.60;;
65393;SDS011;52002;49.760;6.512;2023-09-30T14:12:24;4.40;;;2.20;;
65393;SDS011;52002;49.760;6.512;2023-09-30T14:14:49;4.80;;;2.40;;
65393;SDS011;52002;49.760;6.512;2023-09-30T14:17:16;5.50;;;2.90;;
65393;SDS011;52002;49.760;6.512;2023-09-30T14:19:45;8.60;;;3.70;;
65393;SDS011;52002;49.760;6.512;2023-09-30T14:22:10;6.50;;;2.60;;
65393;SDS011;52002;49.760;6.512;2023-09-30T14:24:37;4.80;;;2.50;;
65393;SDS011;52002;49.760;6.512;2023-09-30T14:27:02;5.30;;;3.10;;
65393;SDS011;52002;49.760;6.512;2023-09-30T14:29:28;5.40;;;2.70;;
65393;SDS011;52002;49.760;6.512;2023-09-30T14:31:54;6.20;;;2.30;;
65393;SDS011;52002;49.760;6.512;2023-09-30T14:34:19;4.40;;;2.40;;
65393;SDS011;52002;49.760;6.512;2023-09-30T14:36:45;4.50;;;2.20;;
65393;SDS011;52002;49.760;6.512;2023-09-30T14:39:11;6.30;;;2.50;;
65393;SDS011;52002;49.760;6.512;2023-09-30T14:41:36;6.10;;;2.40;;
65393;SDS011;52002;49.760;6.512;2023-09-30T14:44:02;4.90;;;2.50;;
65393;SDS011;52002;49.760;6.512;2023-09-30T14:46:32;6.60;;;2.30;;
65393;SDS011;52002;49.760;6.512;2023-09-30T14:48:59;4.60;;;2.20;;
65393;SDS011;52002;49.760;6.512;2023-09-30T14:51:25;7.80;;;2.70;;
65393;SDS011;52002;49.760;6.512;2023-09-30T14:53:50;5.40;;;2.20;;
65393;SDS011;52002;49.760;6.512;2023-09-30T14:56:16;7.50;;;2.60;;
65393;SDS011;52002;49.760;6.512;2023-09-30T14:58:42;6.80;;;2.50;;
65393;SDS011;52002;49.760;6.512;2023-09-30T15:01:09;6.20;;;2.70;;
65393;SDS011;52002;49.760;6.512;2023-09-30T15:03:34;4.70;;;2.20;;